createdAt,value
2022-12-31T00:00:23.322Z,60.58
2022-12-31T00:01:23.279Z,53.25
2022-12-31T00:02:23.358Z,52.65
2022-12-31T00:03:23.361Z,61.73
2022-12-31T00:04:23.267Z,59.27
2022-12-31T00:05:23.265Z,53.81
2022-12-31T00:06:23.246Z,58.75
2022-12-31T00:07:23.240Z,52.92
2022-12-31T00:08:23.222Z,48.75
2022-12-31T00:09:23.219Z,61.80
2022-12-31T00:10:23.203Z,60.26
2022-12-31T00:11:23.215Z,54.01
2022-12-31T00:12:23.224Z,60.34
2022-12-31T00:13:23.174Z,62.93
2022-12-31T00:14:24.176Z,55.87
2022-12-31T00:15:23.170Z,52.10
2022-12-31T00:16:23.214Z,50.55
2022-12-31T00:17:23.169Z,59.02
2022-12-31T00:18:23.160Z,55.26
2022-12-31T00:19:23.151Z,44.63
2022-12-31T00:20:23.145Z,44.61
2022-12-31T00:21:23.128Z,57.34
2022-12-31T00:22:23.122Z,58.87
2022-12-31T00:23:23.112Z,46.96
2022-12-31T00:24:23.106Z,56.86
2022-12-31T00:25:23.091Z,49.13
2022-12-31T00:28:11.809Z,58.94
2022-12-31T00:29:11.814Z,60.34
2022-12-31T00:30:11.793Z,59.84
2022-12-31T00:31:11.827Z,63.33
2022-12-31T00:32:11.779Z,58.76
2022-12-31T00:33:11.772Z,57.90
2022-12-31T00:34:11.758Z,55.61
2022-12-31T00:35:11.769Z,50.61
2022-12-31T00:36:11.752Z,43.93
2022-12-31T00:37:13.708Z,59.02
2022-12-31T00:38:12.823Z,57.89
2022-12-31T00:39:13.810Z,54.96
2022-12-31T00:40:12.813Z,63.85
2022-12-31T00:41:12.789Z,61.30
2022-12-31T00:42:12.805Z,61.71
2022-12-31T00:43:12.791Z,60.66
2022-12-31T00:44:12.769Z,60.90
2022-12-31T00:45:12.763Z,55.31
2022-12-31T00:46:12.816Z,45.45
2022-12-31T00:47:12.759Z,64.73
2022-12-31T00:48:12.738Z,59.97
2022-12-31T00:49:12.729Z,56.69
2022-12-31T00:50:12.730Z,59.46
2022-12-31T00:51:12.709Z,56.64
2022-12-31T00:52:12.708Z,54.32
2022-12-31T00:53:12.689Z,60.15
2022-12-31T00:54:13.704Z,55.72
2022-12-31T00:55:14.261Z,50.09
2022-12-31T00:56:12.673Z,64.16
2022-12-31T00:57:13.196Z,53.87
2022-12-31T00:58:16.210Z,59.43
2022-12-31T00:59:12.668Z,60.01
2022-12-31T01:00:12.640Z,57.81
2022-12-31T01:01:12.844Z,56.13
2022-12-31T01:02:12.906Z,63.56
2022-12-31T01:03:12.682Z,61.00
2022-12-31T01:04:13.258Z,51.52
2022-12-31T01:05:12.591Z,63.78
2022-12-31T01:06:12.588Z,64.43
2022-12-31T01:07:12.575Z,51.22
2022-12-31T01:08:12.576Z,58.16
2022-12-31T01:09:12.579Z,63.47
2022-12-31T01:10:12.563Z,58.47
2022-12-31T01:11:12.540Z,53.13
2022-12-31T01:12:12.538Z,50.13
2022-12-31T01:13:12.550Z,43.06
2022-12-31T01:14:12.524Z,52.86
2022-12-31T01:15:12.520Z,57.08
2022-12-31T01:16:12.548Z,56.67
2022-12-31T01:17:12.513Z,60.08
2022-12-31T01:18:13.188Z,55.71
2022-12-31T01:19:12.549Z,59.86
2022-12-31T01:20:12.483Z,66.01
2022-12-31T01:21:12.489Z,51.78
2022-12-31T01:22:12.465Z,57.53
2022-12-31T01:23:14.187Z,53.54
2022-12-31T01:24:12.456Z,58.99
2022-12-31T01:25:12.432Z,54.44
2022-12-31T01:26:12.455Z,54.45
2022-12-31T01:27:12.411Z,56.11
2022-12-31T01:28:12.423Z,55.09
2022-12-31T01:29:14.280Z,62.38
2022-12-31T01:30:12.390Z,54.23
2022-12-31T01:31:12.414Z,59.01
2022-12-31T01:32:12.389Z,49.82
2022-12-31T01:33:12.361Z,50.61
2022-12-31T01:34:16.197Z,61.29
2022-12-31T01:35:12.361Z,51.63
2022-12-31T01:36:12.362Z,49.74
2022-12-31T01:37:12.331Z,52.39
2022-12-31T01:38:12.318Z,60.82
2022-12-31T01:39:12.321Z,45.52
2022-12-31T01:40:12.291Z,52.36
2022-12-31T01:41:13.295Z,50.51
2022-12-31T01:42:12.303Z,52.28
2022-12-31T01:43:12.277Z,42.34
2022-12-31T01:44:12.298Z,49.96
2022-12-31T01:45:12.265Z,53.24
2022-12-31T01:46:12.292Z,58.94
2022-12-31T01:47:12.242Z,48.01
2022-12-31T01:48:12.241Z,52.72
2022-12-31T01:49:12.242Z,52.82
2022-12-31T01:50:13.233Z,55.73
2022-12-31T01:51:12.219Z,57.48
2022-12-31T01:52:12.217Z,49.69
2022-12-31T01:53:12.208Z,50.10
2022-12-31T01:54:12.201Z,57.10
2022-12-31T01:55:12.187Z,56.90
2022-12-31T01:56:12.180Z,56.30
2022-12-31T01:57:12.174Z,41.59
2022-12-31T01:58:12.168Z,43.00
2022-12-31T01:59:12.162Z,55.08
2022-12-31T02:00:12.145Z,40.88
2022-12-31T02:01:12.165Z,47.44
2022-12-31T02:02:12.736Z,58.65
2022-12-31T02:03:12.175Z,60.52
2022-12-31T02:04:12.115Z,50.31
2022-12-31T02:05:12.117Z,50.71
2022-12-31T02:06:12.099Z,49.23
2022-12-31T02:07:12.103Z,52.92
2022-12-31T02:08:12.077Z,60.09
2022-12-31T02:09:12.089Z,61.03
2022-12-31T02:10:12.117Z,42.93
2022-12-31T02:11:12.081Z,48.75
2022-12-31T02:12:12.063Z,53.47
2022-12-31T02:13:12.055Z,62.34
2022-12-31T02:14:12.051Z,47.92
2022-12-31T02:15:12.033Z,59.22
2022-12-31T02:16:12.080Z,57.16
2022-12-31T02:17:12.028Z,42.04
2022-12-31T02:18:12.007Z,54.43
2022-12-31T02:19:11.996Z,46.84
2022-12-31T02:20:12.001Z,42.86
2022-12-31T02:21:11.979Z,59.91
2022-12-31T02:22:11.969Z,54.51
2022-12-31T02:23:11.965Z,49.69
2022-12-31T02:24:11.954Z,45.13
2022-12-31T02:25:12.011Z,49.88
2022-12-31T02:26:11.955Z,62.56
2022-12-31T02:27:12.883Z,50.12
2022-12-31T02:28:11.928Z,46.89
2022-12-31T02:29:12.667Z,52.14
2022-12-31T02:30:12.930Z,53.72
2022-12-31T02:31:11.921Z,52.61
2022-12-31T02:32:12.633Z,41.95
2022-12-31T02:33:12.888Z,54.71
2022-12-31T02:34:11.873Z,51.08
2022-12-31T02:35:11.872Z,55.11
2022-12-31T02:36:11.855Z,46.44
2022-12-31T02:37:11.856Z,52.89
2022-12-31T02:38:11.849Z,44.42
2022-12-31T02:39:11.828Z,43.41
2022-12-31T02:40:11.828Z,50.75
2022-12-31T02:41:11.813Z,60.76
2022-12-31T02:42:11.817Z,55.31
2022-12-31T02:43:11.787Z,48.20
2022-12-31T02:44:12.787Z,42.82
2022-12-31T02:45:11.804Z,44.50
2022-12-31T02:46:11.875Z,46.68
2022-12-31T02:47:11.760Z,54.34
2022-12-31T02:48:12.291Z,53.85
2022-12-31T02:49:11.746Z,60.09
2022-12-31T02:50:11.749Z,54.89
2022-12-31T02:51:11.751Z,54.02
2022-12-31T02:52:11.729Z,57.26
2022-12-31T02:55:17.986Z,49.11
2022-12-31T02:56:17.984Z,43.48
2022-12-31T02:57:17.982Z,41.74
2022-12-31T02:58:17.961Z,43.31
2022-12-31T02:59:17.960Z,42.87
2022-12-31T03:00:17.951Z,45.51
2022-12-31T03:01:18.151Z,45.55
2022-12-31T03:02:18.965Z,50.34
2022-12-31T03:03:19.026Z,56.08
2022-12-31T03:04:19.026Z,45.90
2022-12-31T03:05:19.024Z,57.19
2022-12-31T03:06:19.001Z,52.54
2022-12-31T03:07:18.991Z,53.86
2022-12-31T03:08:18.992Z,42.16
2022-12-31T03:09:19.866Z,51.62
2022-12-31T03:10:18.966Z,53.74
2022-12-31T03:11:18.956Z,54.53
2022-12-31T03:12:18.946Z,42.34
2022-12-31T03:13:18.961Z,56.02
2022-12-31T03:14:18.943Z,51.91
2022-12-31T03:15:18.926Z,51.77
2022-12-31T03:16:19.922Z,57.63
2022-12-31T03:17:18.928Z,54.19
2022-12-31T03:18:18.913Z,55.95
2022-12-31T03:19:18.898Z,41.23
2022-12-31T03:20:18.903Z,47.62
2022-12-31T03:21:18.879Z,43.09
2022-12-31T03:22:18.874Z,56.12
2022-12-31T03:23:18.867Z,53.35
2022-12-31T03:24:18.878Z,55.80
2022-12-31T03:25:18.848Z,57.17
2022-12-31T03:26:18.837Z,46.89
2022-12-31T03:27:18.829Z,54.53
2022-12-31T03:28:18.823Z,51.94
2022-12-31T03:29:18.815Z,49.06
2022-12-31T03:30:18.821Z,48.09
2022-12-31T03:31:18.990Z,42.60
2022-12-31T03:32:18.788Z,41.90
2022-12-31T03:33:18.785Z,57.51
2022-12-31T03:34:18.773Z,53.27
2022-12-31T03:35:18.772Z,51.02
2022-12-31T03:36:18.758Z,57.85
2022-12-31T03:37:18.751Z,54.46
2022-12-31T03:38:18.748Z,47.14
2022-12-31T03:39:18.735Z,42.71
2022-12-31T03:40:18.740Z,42.62
2022-12-31T03:41:18.710Z,56.86
2022-12-31T03:42:18.712Z,50.66
2022-12-31T03:43:18.709Z,51.42
2022-12-31T03:44:19.455Z,52.44
2022-12-31T03:45:18.691Z,42.17
2022-12-31T03:46:18.703Z,54.65
2022-12-31T03:47:18.670Z,49.28
2022-12-31T03:48:18.681Z,40.53
2022-12-31T03:49:18.662Z,45.48
2022-12-31T03:50:18.672Z,53.10
2022-12-31T03:51:18.646Z,52.02
2022-12-31T03:52:18.641Z,41.15
2022-12-31T03:53:18.633Z,50.26
2022-12-31T03:54:18.622Z,52.43
2022-12-31T03:55:18.605Z,53.64
2022-12-31T03:56:18.615Z,42.74
2022-12-31T03:57:18.595Z,46.42
2022-12-31T03:58:18.588Z,42.05
2022-12-31T03:59:18.575Z,57.55
2022-12-31T04:00:18.578Z,56.91
2022-12-31T04:01:18.696Z,55.77
2022-12-31T04:02:20.925Z,54.23
2022-12-31T04:03:20.577Z,55.66
2022-12-31T04:04:18.565Z,55.74
2022-12-31T04:05:19.378Z,51.38
2022-12-31T04:06:18.517Z,56.08
2022-12-31T04:07:18.524Z,57.86
2022-12-31T04:08:18.512Z,57.69
2022-12-31T04:09:19.463Z,49.42
2022-12-31T04:10:18.494Z,58.54
2022-12-31T04:11:21.012Z,54.78
2022-12-31T04:12:19.503Z,54.10
2022-12-31T04:13:18.460Z,56.35
2022-12-31T04:14:18.465Z,48.48
2022-12-31T04:15:18.472Z,55.81
2022-12-31T04:16:18.480Z,53.85
2022-12-31T04:17:18.444Z,54.60
2022-12-31T04:18:18.439Z,60.88
2022-12-31T04:19:18.430Z,54.10
2022-12-31T04:20:18.413Z,57.48
2022-12-31T04:21:18.409Z,51.13
2022-12-31T04:22:18.393Z,58.99
2022-12-31T04:23:18.419Z,51.39
2022-12-31T04:24:18.377Z,54.01
2022-12-31T04:25:18.375Z,47.38
2022-12-31T04:26:18.344Z,52.32
2022-12-31T04:27:19.339Z,62.50
2022-12-31T04:28:18.345Z,51.03
2022-12-31T04:29:18.341Z,56.75
2022-12-31T04:30:18.329Z,47.80
2022-12-31T04:31:18.340Z,59.98
2022-12-31T04:32:18.314Z,55.44
2022-12-31T04:33:18.304Z,55.05
2022-12-31T04:34:18.289Z,56.08
2022-12-31T04:35:18.279Z,64.54
2022-12-31T04:36:18.275Z,55.53
2022-12-31T04:37:18.275Z,56.79
2022-12-31T04:38:18.262Z,57.87
2022-12-31T04:39:18.253Z,56.81
2022-12-31T04:40:18.238Z,57.70
2022-12-31T04:41:18.239Z,56.48
2022-12-31T04:42:18.308Z,58.14
2022-12-31T04:43:18.216Z,58.46
2022-12-31T04:44:18.209Z,53.54
2022-12-31T04:45:18.209Z,55.08
2022-12-31T04:46:18.241Z,57.37
2022-12-31T04:47:23.411Z,54.26
2022-12-31T04:48:20.175Z,52.60
2022-12-31T04:49:18.163Z,51.63
2022-12-31T04:50:18.169Z,56.92
2022-12-31T04:51:18.159Z,56.16
2022-12-31T04:52:18.146Z,60.42
2022-12-31T04:53:18.140Z,54.43
2022-12-31T04:54:18.131Z,50.55
2022-12-31T04:55:18.117Z,50.27
2022-12-31T04:56:18.133Z,56.68
2022-12-31T04:57:18.103Z,54.77
2022-12-31T04:58:18.100Z,53.75
2022-12-31T04:59:18.128Z,57.28
2022-12-31T05:00:18.093Z,58.50
2022-12-31T05:01:18.160Z,49.48
2022-12-31T05:02:18.261Z,50.93
2022-12-31T05:03:18.092Z,59.50
2022-12-31T05:04:18.047Z,53.01
2022-12-31T05:05:18.048Z,50.78
2022-12-31T05:06:18.037Z,48.87
2022-12-31T05:07:18.025Z,51.73
2022-12-31T05:08:18.116Z,51.24
2022-12-31T05:09:18.020Z,68.34
2022-12-31T05:10:18.007Z,56.32
2022-12-31T05:11:17.996Z,55.23
2022-12-31T05:12:17.982Z,57.12
2022-12-31T05:13:17.973Z,59.03
2022-12-31T05:14:17.978Z,53.38
2022-12-31T05:15:17.959Z,60.23
2022-12-31T05:16:18.016Z,52.30
2022-12-31T05:17:17.952Z,56.36
2022-12-31T05:18:17.929Z,59.87
2022-12-31T05:19:18.079Z,55.02
2022-12-31T05:20:17.923Z,49.00
2022-12-31T05:21:17.915Z,52.54
2022-12-31T05:22:17.904Z,57.90
2022-12-31T05:23:17.893Z,51.24
2022-12-31T05:24:17.891Z,57.11
2022-12-31T05:25:17.889Z,60.30
2022-12-31T05:26:17.893Z,58.53
2022-12-31T05:27:17.869Z,52.99
2022-12-31T05:28:18.411Z,54.44
2022-12-31T05:29:17.852Z,58.92
2022-12-31T05:30:17.839Z,64.49
2022-12-31T05:31:17.890Z,59.11
2022-12-31T05:32:17.830Z,57.64
2022-12-31T05:33:17.813Z,57.95
2022-12-31T05:34:17.809Z,54.23
2022-12-31T05:35:17.809Z,60.86
2022-12-31T05:36:17.791Z,58.29
2022-12-31T05:37:17.790Z,55.96
2022-12-31T05:38:17.804Z,66.53
2022-12-31T05:39:17.770Z,55.63
2022-12-31T05:40:17.776Z,52.43
2022-12-31T05:41:17.775Z,55.29
2022-12-31T05:42:17.740Z,57.92
2022-12-31T05:43:17.729Z,54.33
2022-12-31T05:44:17.724Z,59.28
2022-12-31T05:45:17.730Z,59.38
2022-12-31T05:46:17.740Z,62.03
2022-12-31T05:47:17.696Z,58.40
2022-12-31T05:48:17.695Z,60.32
2022-12-31T05:49:17.693Z,56.99
2022-12-31T05:50:17.674Z,55.54
2022-12-31T05:51:17.676Z,60.38
2022-12-31T05:52:17.658Z,60.85
2022-12-31T05:53:17.644Z,55.49
2022-12-31T05:54:17.639Z,55.33
2022-12-31T05:55:17.641Z,53.89
2022-12-31T05:56:17.633Z,56.04
2022-12-31T05:57:17.623Z,59.96
2022-12-31T05:58:17.627Z,57.03
2022-12-31T05:59:17.610Z,58.92
2022-12-31T06:00:17.619Z,56.61
2022-12-31T06:01:17.629Z,54.76
2022-12-31T06:02:17.616Z,55.56
2022-12-31T06:03:18.733Z,57.14
2022-12-31T06:04:17.572Z,58.15
2022-12-31T06:05:22.478Z,63.16
2022-12-31T06:06:19.589Z,60.34
2022-12-31T06:07:17.541Z,58.80
2022-12-31T06:08:17.535Z,62.03
2022-12-31T06:09:17.527Z,54.81
2022-12-31T06:10:17.554Z,57.94
2022-12-31T06:11:17.520Z,47.49
2022-12-31T06:12:17.500Z,53.22
2022-12-31T06:13:17.505Z,56.01
2022-12-31T06:14:17.485Z,50.41
2022-12-31T06:15:17.993Z,60.02
2022-12-31T06:16:17.575Z,50.80
2022-12-31T06:17:17.473Z,54.86
2022-12-31T06:18:17.456Z,58.92
2022-12-31T06:19:17.451Z,56.71
2022-12-31T06:20:17.451Z,64.12
2022-12-31T06:21:17.437Z,59.42
2022-12-31T06:22:17.422Z,54.81
2022-12-31T06:23:17.412Z,55.23
2022-12-31T06:24:17.434Z,63.39
2022-12-31T06:25:17.402Z,59.47
2022-12-31T06:26:17.399Z,60.75
2022-12-31T06:27:17.381Z,59.40
2022-12-31T06:28:20.392Z,55.38
2022-12-31T06:29:18.515Z,52.49
2022-12-31T06:30:17.355Z,55.44
2022-12-31T06:31:17.384Z,60.97
2022-12-31T06:32:17.349Z,62.60
2022-12-31T06:33:17.333Z,60.94
2022-12-31T06:34:17.331Z,54.55
2022-12-31T06:35:17.317Z,61.40
2022-12-31T06:36:17.313Z,61.34
2022-12-31T06:37:17.322Z,57.07
2022-12-31T06:38:17.305Z,54.90
2022-12-31T06:39:17.277Z,61.38
2022-12-31T06:40:17.296Z,63.98
2022-12-31T06:41:17.267Z,61.22
2022-12-31T06:42:17.259Z,59.19
2022-12-31T06:43:17.259Z,58.17
2022-12-31T06:44:17.933Z,56.60
2022-12-31T06:45:17.242Z,62.58
2022-12-31T06:46:17.320Z,59.41
2022-12-31T06:47:17.225Z,59.65
2022-12-31T06:48:17.218Z,59.20
2022-12-31T06:49:17.206Z,56.08
2022-12-31T06:50:17.207Z,54.41
2022-12-31T06:51:17.743Z,60.84
2022-12-31T06:52:18.186Z,57.85
2022-12-31T06:53:17.177Z,60.08
2022-12-31T06:54:17.168Z,62.21
2022-12-31T06:55:17.161Z,63.93
2022-12-31T06:56:17.166Z,60.72
2022-12-31T06:57:17.152Z,57.63
2022-12-31T06:58:17.133Z,54.97
2022-12-31T06:59:17.135Z,52.86
2022-12-31T07:00:17.115Z,63.21
2022-12-31T07:01:17.241Z,59.13
2022-12-31T07:02:17.164Z,62.36
2022-12-31T07:03:17.123Z,63.03
2022-12-31T07:04:17.105Z,61.75
2022-12-31T07:05:17.080Z,54.54
2022-12-31T07:06:17.075Z,59.61
2022-12-31T07:07:17.059Z,59.91
2022-12-31T07:08:17.067Z,63.97
2022-12-31T07:09:17.053Z,60.36
2022-12-31T07:10:17.053Z,57.14
2022-12-31T07:11:17.040Z,59.16
2022-12-31T07:12:17.021Z,59.72
2022-12-31T07:13:17.023Z,56.09
2022-12-31T07:14:17.021Z,59.91
2022-12-31T07:15:17.008Z,59.72
2022-12-31T07:16:17.068Z,56.30
2022-12-31T07:17:17.032Z,57.92
2022-12-31T07:18:16.987Z,60.07
2022-12-31T07:19:16.979Z,60.96
2022-12-31T07:20:16.997Z,60.06
2022-12-31T07:21:17.937Z,64.55
2022-12-31T07:22:16.947Z,64.17
2022-12-31T07:23:17.061Z,64.26
2022-12-31T07:24:16.940Z,58.73
2022-12-31T07:25:18.396Z,59.60
2022-12-31T07:26:16.929Z,65.26
2022-12-31T07:27:16.910Z,64.19
2022-12-31T07:28:17.436Z,61.03
2022-12-31T07:29:16.906Z,61.57
2022-12-31T07:30:16.948Z,62.13
2022-12-31T07:31:16.977Z,64.28
2022-12-31T07:32:16.882Z,63.94
2022-12-31T07:33:16.880Z,66.26
2022-12-31T07:34:16.852Z,62.20
2022-12-31T07:35:16.860Z,57.89
2022-12-31T07:36:16.849Z,63.72
2022-12-31T07:37:16.835Z,60.76
2022-12-31T07:38:16.952Z,65.02
2022-12-31T07:39:17.437Z,65.17
2022-12-31T07:40:16.812Z,60.60
2022-12-31T07:41:16.825Z,62.50
2022-12-31T07:42:16.789Z,63.20
2022-12-31T07:43:16.788Z,62.26
2022-12-31T07:44:16.786Z,59.69
2022-12-31T07:45:16.783Z,59.97
2022-12-31T07:46:16.803Z,61.47
2022-12-31T07:47:16.753Z,58.66
2022-12-31T07:48:16.747Z,62.93
2022-12-31T07:49:16.740Z,63.68
2022-12-31T07:50:16.756Z,66.29
2022-12-31T07:51:16.717Z,61.16
2022-12-31T07:52:16.732Z,63.41
2022-12-31T07:53:16.710Z,62.14
2022-12-31T07:54:16.704Z,66.09
2022-12-31T07:55:17.449Z,66.27
2022-12-31T07:56:16.678Z,63.78
2022-12-31T07:57:16.668Z,63.36
2022-12-31T07:58:16.684Z,59.66
2022-12-31T07:59:22.448Z,60.98
2022-12-31T08:00:18.650Z,64.98
2022-12-31T08:01:16.710Z,59.16
2022-12-31T08:02:17.528Z,65.23
2022-12-31T08:03:16.632Z,64.47
2022-12-31T08:04:16.620Z,58.94
2022-12-31T08:05:16.611Z,62.29
2022-12-31T08:06:16.602Z,62.60
2022-12-31T08:07:16.601Z,63.10
2022-12-31T08:08:16.584Z,61.78
2022-12-31T08:09:16.575Z,58.41
2022-12-31T08:10:18.282Z,56.92
2022-12-31T08:11:17.556Z,61.19
2022-12-31T08:12:16.558Z,63.00
2022-12-31T08:13:16.548Z,59.75
2022-12-31T08:14:16.538Z,61.84
2022-12-31T08:15:17.523Z,61.69
2022-12-31T08:16:16.719Z,61.52
2022-12-31T08:17:16.515Z,62.41
2022-12-31T08:18:17.454Z,64.17
2022-12-31T08:19:16.506Z,64.23
2022-12-31T08:20:16.498Z,64.30
2022-12-31T08:21:16.491Z,65.00
2022-12-31T08:22:16.482Z,61.26
2022-12-31T08:23:16.463Z,62.74
2022-12-31T08:24:16.465Z,66.45
2022-12-31T08:25:16.471Z,62.42
2022-12-31T08:26:16.438Z,64.19
2022-12-31T08:27:16.454Z,64.75
2022-12-31T08:28:16.421Z,65.19
2022-12-31T08:29:16.424Z,64.29
2022-12-31T08:30:16.432Z,66.13
2022-12-31T08:31:16.463Z,64.21
2022-12-31T08:32:16.393Z,64.27
2022-12-31T08:33:16.383Z,65.02
2022-12-31T08:34:16.383Z,63.12
2022-12-31T08:35:17.052Z,64.07
2022-12-31T08:36:16.402Z,63.94
2022-12-31T08:37:16.366Z,63.78
2022-12-31T08:38:16.349Z,65.25
2022-12-31T08:39:16.342Z,62.65
2022-12-31T08:40:16.336Z,62.19
2022-12-31T08:41:16.332Z,62.23
2022-12-31T08:42:16.319Z,64.03
2022-12-31T08:43:16.311Z,63.05
2022-12-31T08:44:16.301Z,63.06
2022-12-31T08:45:17.036Z,63.17
2022-12-31T08:46:19.964Z,63.94
2022-12-31T08:47:16.284Z,63.41
2022-12-31T08:48:16.290Z,63.42
2022-12-31T08:49:17.091Z,63.83
2022-12-31T08:50:16.275Z,64.70
2022-12-31T08:51:17.037Z,63.69
2022-12-31T08:52:16.250Z,64.60
2022-12-31T08:53:16.245Z,63.26
2022-12-31T08:54:16.237Z,66.13
2022-12-31T08:55:16.214Z,65.53
2022-12-31T08:56:16.221Z,65.96
2022-12-31T08:57:16.235Z,62.26
2022-12-31T08:58:20.558Z,61.21
2022-12-31T08:59:16.197Z,63.55
2022-12-31T09:00:16.362Z,65.56
2022-12-31T09:01:16.215Z,64.51
2022-12-31T09:02:16.211Z,65.77
2022-12-31T09:03:16.162Z,63.14
2022-12-31T09:04:16.235Z,63.33
2022-12-31T09:05:16.138Z,63.13
2022-12-31T09:06:16.136Z,65.97
2022-12-31T09:07:16.148Z,65.96
2022-12-31T09:08:16.124Z,63.84
2022-12-31T09:09:16.150Z,64.10
2022-12-31T09:10:16.247Z,65.06
2022-12-31T09:11:22.532Z,66.18
2022-12-31T09:12:18.090Z,65.02
2022-12-31T09:13:16.084Z,61.92
2022-12-31T09:14:16.093Z,64.00
2022-12-31T09:15:16.061Z,64.61
2022-12-31T09:16:16.082Z,63.17
2022-12-31T09:17:16.126Z,64.32
2022-12-31T09:18:16.043Z,63.17
2022-12-31T09:19:17.047Z,66.69
2022-12-31T09:20:16.085Z,66.56
2022-12-31T09:21:16.052Z,69.25
2022-12-31T09:22:16.000Z,63.11
2022-12-31T09:23:16.003Z,64.31
2022-12-31T09:24:15.992Z,65.79
2022-12-31T09:25:15.999Z,63.79
2022-12-31T09:26:15.978Z,63.95
2022-12-31T09:27:15.981Z,65.56
2022-12-31T09:28:16.008Z,64.29
2022-12-31T09:29:15.959Z,64.57
2022-12-31T09:30:17.547Z,64.49
2022-12-31T09:31:15.990Z,63.80
2022-12-31T09:32:15.921Z,64.37
2022-12-31T09:33:15.914Z,65.11
2022-12-31T09:34:15.924Z,64.47
2022-12-31T09:35:15.906Z,64.06
2022-12-31T09:36:15.894Z,65.45
2022-12-31T09:37:15.889Z,65.07
2022-12-31T09:38:15.883Z,64.02
2022-12-31T09:39:15.869Z,62.87
2022-12-31T09:40:15.867Z,63.51
2022-12-31T09:41:15.863Z,65.67
2022-12-31T09:42:15.852Z,69.23
2022-12-31T09:43:15.835Z,65.16
2022-12-31T09:44:15.824Z,63.56
2022-12-31T09:45:15.858Z,62.62
2022-12-31T09:46:15.851Z,61.64
2022-12-31T09:47:15.806Z,69.85
2022-12-31T09:48:15.802Z,64.98
2022-12-31T09:49:15.800Z,66.55
2022-12-31T09:50:15.790Z,64.36
2022-12-31T09:51:19.161Z,63.94
2022-12-31T09:52:17.577Z,61.82
2022-12-31T09:53:15.759Z,65.41
2022-12-31T09:54:16.488Z,65.82
2022-12-31T09:55:15.745Z,66.29
2022-12-31T09:56:15.756Z,63.91
2022-12-31T09:57:16.631Z,64.72
2022-12-31T09:58:15.722Z,62.27
2022-12-31T09:59:15.728Z,63.52
2022-12-31T10:00:15.701Z,65.02
2022-12-31T10:01:15.777Z,64.56
2022-12-31T10:02:16.643Z,65.60
2022-12-31T10:03:15.785Z,65.35
2022-12-31T10:04:15.697Z,65.27
2022-12-31T10:05:16.571Z,66.10
2022-12-31T10:06:15.664Z,66.70
2022-12-31T10:07:15.653Z,66.05
2022-12-31T10:08:16.491Z,66.26
2022-12-31T10:09:15.650Z,63.96
2022-12-31T10:10:15.624Z,62.76
2022-12-31T10:11:15.606Z,64.80
2022-12-31T10:12:15.640Z,64.71
2022-12-31T10:13:15.595Z,64.08
2022-12-31T10:14:17.483Z,63.61
2022-12-31T10:15:15.569Z,64.01
2022-12-31T10:16:15.588Z,63.02
2022-12-31T10:17:15.557Z,63.36
2022-12-31T10:18:15.599Z,66.18
2022-12-31T10:19:15.562Z,66.14
2022-12-31T10:20:15.542Z,67.16
2022-12-31T10:21:15.545Z,63.25
2022-12-31T10:22:16.063Z,63.15
2022-12-31T10:23:18.070Z,63.98
2022-12-31T10:24:15.507Z,65.82
2022-12-31T10:25:15.544Z,63.53
2022-12-31T10:26:15.497Z,64.68
2022-12-31T10:27:15.492Z,64.67
2022-12-31T10:28:17.514Z,64.34
2022-12-31T10:29:15.463Z,63.46
2022-12-31T10:30:15.485Z,64.71
2022-12-31T10:31:15.525Z,65.26
2022-12-31T10:32:15.456Z,64.92
2022-12-31T10:33:16.017Z,64.72
2022-12-31T10:34:15.438Z,64.90
2022-12-31T10:35:18.018Z,65.30
2022-12-31T10:36:15.419Z,62.81
2022-12-31T10:37:15.412Z,64.26
2022-12-31T10:38:15.401Z,65.95
2022-12-31T10:39:20.568Z,63.84
2022-12-31T10:40:17.457Z,63.07
2022-12-31T10:41:15.397Z,62.82
2022-12-31T10:42:15.374Z,64.74
2022-12-31T10:43:15.355Z,64.07
2022-12-31T10:44:15.362Z,64.96
2022-12-31T10:45:15.345Z,65.41
2022-12-31T10:46:22.466Z,63.41
2022-12-31T10:47:17.324Z,62.75
2022-12-31T10:48:15.317Z,65.02
2022-12-31T10:49:15.310Z,63.80
2022-12-31T10:50:15.310Z,64.05
2022-12-31T10:51:15.313Z,65.11
2022-12-31T10:52:15.305Z,64.33
2022-12-31T10:53:15.281Z,65.77
2022-12-31T10:54:15.292Z,65.58
2022-12-31T10:55:15.284Z,64.35
2022-12-31T10:56:15.252Z,65.27
2022-12-31T10:57:15.257Z,63.82
2022-12-31T10:58:15.239Z,64.84
2022-12-31T10:59:15.230Z,66.57
2022-12-31T11:00:15.224Z,65.69
2022-12-31T11:01:15.271Z,65.68
2022-12-31T11:02:15.478Z,64.94
2022-12-31T11:03:15.236Z,65.01
2022-12-31T11:04:15.202Z,63.77
2022-12-31T11:05:15.189Z,65.41
2022-12-31T11:06:15.181Z,65.76
2022-12-31T11:07:15.164Z,62.11
2022-12-31T11:08:15.157Z,63.29
2022-12-31T11:09:15.158Z,63.74
2022-12-31T11:12:24.287Z,63.69
2022-12-31T11:13:34.979Z,66.29
2022-12-31T11:14:23.273Z,63.55
2022-12-31T11:15:23.278Z,65.60
2022-12-31T11:16:23.303Z,64.05
2022-12-31T11:17:23.237Z,63.81
2022-12-31T11:18:24.326Z,64.36
2022-12-31T11:19:24.318Z,64.64
2022-12-31T11:20:24.310Z,66.29
2022-12-31T11:21:28.190Z,66.16
2022-12-31T11:22:25.304Z,67.85
2022-12-31T11:23:24.306Z,65.58
2022-12-31T11:24:57.398Z,66.86
2022-12-31T11:25:24.286Z,67.10
2022-12-31T11:26:24.261Z,66.50
2022-12-31T11:27:24.254Z,67.49
2022-12-31T11:28:24.290Z,65.31
2022-12-31T11:29:24.239Z,64.93
2022-12-31T11:30:24.235Z,66.25
2022-12-31T11:31:24.965Z,63.48
2022-12-31T11:32:24.262Z,66.69
2022-12-31T11:33:24.211Z,65.75
2022-12-31T11:34:24.200Z,68.30
2022-12-31T11:35:24.200Z,65.21
2022-12-31T11:36:24.190Z,63.71
2022-12-31T11:39:31.409Z,63.80
2022-12-31T11:40:30.449Z,64.23
2022-12-31T11:41:33.315Z,64.21
2022-12-31T11:42:31.524Z,64.59
2022-12-31T11:43:31.516Z,63.18
2022-12-31T11:44:31.501Z,63.94
2022-12-31T11:45:31.522Z,64.46
2022-12-31T11:46:31.550Z,63.76
2022-12-31T11:47:31.490Z,62.64
2022-12-31T11:48:32.399Z,66.48
2022-12-31T11:49:31.472Z,63.36
2022-12-31T11:50:31.464Z,64.01
2022-12-31T11:51:31.461Z,63.91
2022-12-31T11:52:31.453Z,65.18
2022-12-31T11:53:31.443Z,64.77
2022-12-31T11:54:31.431Z,66.97
2022-12-31T11:55:31.417Z,65.82
2022-12-31T11:56:31.437Z,63.45
2022-12-31T11:57:31.429Z,62.88
2022-12-31T11:58:31.948Z,62.00
2022-12-31T11:59:31.402Z,64.31
2022-12-31T12:00:31.382Z,65.74
2022-12-31T12:01:31.435Z,64.67
2022-12-31T12:02:31.413Z,65.21
2022-12-31T12:03:31.404Z,64.19
2022-12-31T12:04:31.351Z,67.01
2022-12-31T12:05:31.356Z,64.96
2022-12-31T12:06:31.331Z,65.61
2022-12-31T12:07:31.333Z,64.75
2022-12-31T12:08:31.904Z,62.92
2022-12-31T12:09:31.895Z,63.75
2022-12-31T12:10:36.176Z,65.73
2022-12-31T12:11:33.287Z,65.01
2022-12-31T12:12:31.909Z,64.27
2022-12-31T12:13:31.279Z,64.27
2022-12-31T12:14:31.288Z,63.07
2022-12-31T12:15:32.926Z,62.75
2022-12-31T12:16:31.321Z,63.52
2022-12-31T12:17:31.248Z,63.78
2022-12-31T12:18:31.240Z,68.44
2022-12-31T12:19:31.828Z,68.28
2022-12-31T12:20:31.246Z,62.55
2022-12-31T12:21:31.207Z,64.08
2022-12-31T12:22:31.193Z,64.26
2022-12-31T12:23:31.187Z,66.25
2022-12-31T12:24:31.184Z,64.61
2022-12-31T12:25:31.181Z,62.71
2022-12-31T12:26:31.169Z,64.47
2022-12-31T12:27:31.188Z,66.49
2022-12-31T12:28:31.191Z,65.25
2022-12-31T12:29:31.155Z,63.85
2022-12-31T12:30:32.136Z,64.83
2022-12-31T12:31:31.149Z,64.97
2022-12-31T12:32:31.156Z,64.80
2022-12-31T12:33:31.171Z,64.95
2022-12-31T12:34:31.105Z,64.48
2022-12-31T12:35:31.106Z,63.97
2022-12-31T12:36:31.085Z,65.96
2022-12-31T12:37:31.446Z,70.30
2022-12-31T12:38:31.093Z,64.52
2022-12-31T12:39:31.944Z,65.25
2022-12-31T12:40:34.069Z,63.71
2022-12-31T12:41:32.037Z,64.10
2022-12-31T12:42:31.070Z,64.72
2022-12-31T12:43:31.032Z,63.24
2022-12-31T12:44:31.016Z,63.79
2022-12-31T12:45:31.010Z,63.75
2022-12-31T12:46:31.081Z,64.52
2022-12-31T12:47:30.996Z,63.35
2022-12-31T12:48:30.980Z,64.02
2022-12-31T12:49:31.841Z,61.91
2022-12-31T12:50:30.966Z,65.16
2022-12-31T12:51:30.963Z,63.01
2022-12-31T12:52:30.963Z,64.63
2022-12-31T12:53:30.975Z,65.65
2022-12-31T12:54:31.928Z,67.19
2022-12-31T12:55:30.932Z,63.31
2022-12-31T12:56:30.915Z,63.43
2022-12-31T12:57:30.913Z,64.27
2022-12-31T12:58:30.905Z,63.50
2022-12-31T12:59:30.899Z,61.78
2022-12-31T13:00:30.983Z,65.68